Davis City, Iowa
Current Conditions -  °F | °C
As of 1:53 AM on Monday 22 Dec 2014 (Local Time) from KLWD Reporting Station
Overcast Overcast  
Wind Chill: 31°   Ceiling: 800
Heat Index: 39°   Visibility: 8mi
Dew Point: 38°   Wind: 14mph
Humidity: 96%   Direction: 150°SSE
Pressure: 29.7"   Gusts: 18mph
Location:  40.64°N, 93.81°W
Report Text: KLWD 220753Z AUTO 15012G16KT 8SM BKN008 OVC013 04/03 A2970 RMK AO2 CIG 006V012 SLP066 T00390033
Loading
Personal Weather Stations






























Interactive Weather Map New forecast layout! Learn more

10-Day Weather Forecast

Advertisements
Track Severe Weather on mobile